createdAt,value
2022-10-05T00:00:58.589Z,24.58
2022-10-05T00:03:41.957Z,24.58
2022-10-05T00:06:11.770Z,24.59
2022-10-05T00:08:40.152Z,24.59
2022-10-05T00:11:09.040Z,24.58
2022-10-05T00:13:37.318Z,24.56
2022-10-05T00:16:20.488Z,24.55
2022-10-05T00:18:50.877Z,24.54
2022-10-05T00:21:25.173Z,24.55
2022-10-05T00:23:57.152Z,24.54
2022-10-05T00:26:27.844Z,24.54
2022-10-05T00:28:56.162Z,24.53
2022-10-05T00:31:27.108Z,24.52
2022-10-05T00:33:56.226Z,24.50
2022-10-05T00:36:26.401Z,24.51
2022-10-05T00:38:55.414Z,24.49
2022-10-05T00:41:30.321Z,24.48
2022-10-05T00:44:23.446Z,24.49
2022-10-05T00:47:10.172Z,24.49
2022-10-05T00:50:32.871Z,24.47
2022-10-05T00:53:39.771Z,24.49
2022-10-05T00:56:32.707Z,24.52
2022-10-05T00:59:09.994Z,24.51
2022-10-05T01:02:06.305Z,24.48
2022-10-05T01:04:52.459Z,24.47
2022-10-05T01:07:47.740Z,24.44
2022-10-05T01:10:28.096Z,24.44
2022-10-05T01:13:15.321Z,24.44
2022-10-05T01:15:57.533Z,24.42
2022-10-05T01:18:54.161Z,24.41
2022-10-05T01:21:25.414Z,24.42
2022-10-05T01:24:44.169Z,24.41
2022-10-05T01:27:36.613Z,24.46
2022-10-05T01:30:17.203Z,24.46
2022-10-05T01:32:51.702Z,24.44
2022-10-05T01:35:23.154Z,24.43
2022-10-05T01:38:08.019Z,24.43
2022-10-05T01:40:45.192Z,24.41
2022-10-05T01:43:25.768Z,24.42
2022-10-05T01:46:38.913Z,24.42
2022-10-05T01:49:45.680Z,24.44
2022-10-05T01:52:44.676Z,24.45
2022-10-05T01:55:47.051Z,24.46
2022-10-05T01:58:37.348Z,24.45
2022-10-05T02:01:06.867Z,24.42
2022-10-05T02:03:59.851Z,24.40
2022-10-05T02:06:31.901Z,24.44
2022-10-05T02:09:09.790Z,24.45
2022-10-05T02:11:40.304Z,24.44
2022-10-05T02:14:12.822Z,24.44
2022-10-05T02:16:47.707Z,24.43
2022-10-05T02:19:28.096Z,24.44
2022-10-05T02:22:12.016Z,24.43
2022-10-05T02:24:49.753Z,24.43
2022-10-05T02:27:52.987Z,24.46
2022-10-05T02:30:21.494Z,24.49
2022-10-05T02:33:02.312Z,24.49
2022-10-05T02:35:30.670Z,24.45
2022-10-05T02:38:33.225Z,24.44
2022-10-05T02:41:24.440Z,24.44
2022-10-05T02:44:20.671Z,24.43
2022-10-05T02:47:07.383Z,24.45
2022-10-05T02:50:05.662Z,24.43
2022-10-05T02:52:49.196Z,24.41
2022-10-05T02:55:30.293Z,24.39
2022-10-05T02:58:03.465Z,24.39
2022-10-05T03:00:36.601Z,24.39
2022-10-05T03:03:53.371Z,24.38
2022-10-05T03:06:27.629Z,24.40
2022-10-05T03:09:15.774Z,24.38
2022-10-05T03:11:52.401Z,24.39
2022-10-05T03:14:27.550Z,24.41
2022-10-05T03:17:14.353Z,24.39
2022-10-05T03:19:54.714Z,24.36
2022-10-05T03:22:42.137Z,24.34
2022-10-05T03:25:25.466Z,24.35
2022-10-05T03:28:19.586Z,24.33
2022-10-05T03:31:25.265Z,24.37
2022-10-05T03:34:00.256Z,24.45
2022-10-05T03:36:47.227Z,24.45
2022-10-05T03:39:36.747Z,24.45
2022-10-05T03:42:29.378Z,24.43
2022-10-05T03:45:03.600Z,24.42
2022-10-05T03:47:46.103Z,24.39
2022-10-05T03:50:26.365Z,24.37
2022-10-05T03:53:02.525Z,24.34
2022-10-05T03:55:54.355Z,24.32
2022-10-05T03:58:36.452Z,24.33
2022-10-05T04:01:11.074Z,24.33
2022-10-05T04:03:44.813Z,24.32
2022-10-05T04:06:26.596Z,24.31
2022-10-05T04:09:04.685Z,24.31
2022-10-05T04:11:52.146Z,24.31
2022-10-05T04:14:24.857Z,24.30
2022-10-05T04:17:00.461Z,24.28
2022-10-05T04:19:40.303Z,24.29
2022-10-05T04:22:20.750Z,24.29
2022-10-05T04:25:06.233Z,24.28
2022-10-05T04:27:39.710Z,24.25
2022-10-05T04:30:18.094Z,24.23
2022-10-05T04:32:53.193Z,24.24
2022-10-05T04:35:38.541Z,24.25
2022-10-05T04:38:32.853Z,24.26
2022-10-05T04:41:11.878Z,24.26
2022-10-05T04:43:49.470Z,24.32
2022-10-05T04:46:43.727Z,24.26
2022-10-05T04:49:49.846Z,24.30
2022-10-05T04:52:18.303Z,24.33
2022-10-05T04:55:09.829Z,24.30
2022-10-05T04:58:05.647Z,24.28
2022-10-05T05:01:00.214Z,24.33
2022-10-05T05:03:39.532Z,24.37
2022-10-05T05:06:35.812Z,24.38
2022-10-05T05:09:22.724Z,24.40
2022-10-05T05:11:57.352Z,24.41
2022-10-05T05:14:59.625Z,24.44
2022-10-05T05:17:28.002Z,24.46
2022-10-05T05:20:19.831Z,24.43
2022-10-05T05:23:33.279Z,24.46
2022-10-05T05:26:11.678Z,24.51
2022-10-05T05:29:09.556Z,24.53
2022-10-05T05:31:43.075Z,24.56
2022-10-05T05:34:40.414Z,24.58
2022-10-05T05:37:50.264Z,24.61
2022-10-05T05:40:25.914Z,24.71
2022-10-05T05:43:16.120Z,24.63
2022-10-05T05:45:49.911Z,24.61
2022-10-05T05:48:50.853Z,24.57
2022-10-05T05:51:31.291Z,24.63
2022-10-05T05:54:14.236Z,24.63
2022-10-05T05:56:47.939Z,24.62
2022-10-05T05:59:25.536Z,24.59
2022-10-05T06:01:59.816Z,24.60
2022-10-05T06:04:46.170Z,24.61
2022-10-05T06:07:18.355Z,24.55
2022-10-05T06:10:27.199Z,24.55
2022-10-05T06:13:00.923Z,24.64
2022-10-05T06:15:39.276Z,24.72
2022-10-05T06:18:12.870Z,24.81
2022-10-05T06:20:46.068Z,24.81
2022-10-05T06:23:30.651Z,24.76
2022-10-05T06:26:10.673Z,24.76
2022-10-05T06:28:39.538Z,24.74
2022-10-05T06:32:03.989Z,24.72
2022-10-05T06:34:53.644Z,24.80
2022-10-05T06:37:43.420Z,24.82
2022-10-05T06:40:14.161Z,24.79
2022-10-05T06:43:06.401Z,24.77
2022-10-05T06:45:59.616Z,24.77
2022-10-05T06:49:12.993Z,24.78
2022-10-05T06:51:48.536Z,24.82
2022-10-05T06:54:32.070Z,24.84
2022-10-05T06:57:28.102Z,24.84
2022-10-05T07:00:04.467Z,24.85
2022-10-05T07:02:44.339Z,24.83
2022-10-05T07:05:34.345Z,24.86
2022-10-05T07:08:12.427Z,24.89
2022-10-05T07:10:58.151Z,24.90
2022-10-05T07:13:47.879Z,24.96
2022-10-05T07:16:57.317Z,24.98
2022-10-05T07:19:37.983Z,25.07
2022-10-05T07:22:35.958Z,25.13
2022-10-05T07:25:10.890Z,25.20
2022-10-05T07:27:53.763Z,25.23
2022-10-05T07:30:23.116Z,25.24
2022-10-05T07:32:59.993Z,25.25
2022-10-05T07:35:52.843Z,25.24
2022-10-05T07:38:32.983Z,25.24
2022-10-05T07:41:13.463Z,25.25
2022-10-05T07:44:02.822Z,25.29
2022-10-05T07:46:40.835Z,25.35
2022-10-05T07:49:12.085Z,25.37
2022-10-05T07:51:42.306Z,25.37
2022-10-05T07:54:24.565Z,25.35
2022-10-05T07:57:10.912Z,25.39
2022-10-05T07:59:49.279Z,25.45
2022-10-05T08:02:54.108Z,25.49
2022-10-05T08:05:31.832Z,25.53
2022-10-05T08:08:21.771Z,25.55
2022-10-05T08:11:13.059Z,25.55
2022-10-05T08:13:55.774Z,25.54
2022-10-05T08:16:28.503Z,25.59
2022-10-05T08:19:32.365Z,25.59
2022-10-05T08:22:10.286Z,25.62
2022-10-05T08:24:38.752Z,25.61
2022-10-05T08:27:22.553Z,25.62
2022-10-05T08:29:57.457Z,25.61
2022-10-05T08:32:51.811Z,25.62
2022-10-05T08:35:39.035Z,25.65
2022-10-05T08:38:15.203Z,25.64
2022-10-05T08:41:03.441Z,25.65
2022-10-05T08:43:35.502Z,25.68
2022-10-05T08:46:32.922Z,25.70
2022-10-05T08:49:19.265Z,25.70
2022-10-05T08:51:50.146Z,25.70
2022-10-05T08:54:24.379Z,25.69
2022-10-05T08:57:04.781Z,25.67
2022-10-05T09:00:09.312Z,25.66
2022-10-05T09:02:56.284Z,25.69
2022-10-05T09:05:52.556Z,25.72
2022-10-05T09:08:31.395Z,25.70
2022-10-05T09:11:20.967Z,25.68
2022-10-05T09:14:27.229Z,25.68
2022-10-05T09:17:02.868Z,25.72
2022-10-05T09:19:49.381Z,25.74
2022-10-05T09:22:54.932Z,25.73
2022-10-05T09:25:32.629Z,25.71
2022-10-05T09:28:07.190Z,25.67
2022-10-05T09:30:38.559Z,25.65
2022-10-05T09:33:28.645Z,25.61
2022-10-05T09:36:12.858Z,25.62
2022-10-05T09:38:43.680Z,25.61
2022-10-05T09:41:39.913Z,25.61
2022-10-05T09:44:08.292Z,25.61
2022-10-05T09:46:55.104Z,25.56
2022-10-05T09:49:50.272Z,25.57
2022-10-05T09:52:27.190Z,25.58
2022-10-05T09:55:52.402Z,25.56
2022-10-05T09:58:45.461Z,25.62
2022-10-05T10:01:52.235Z,25.60
2022-10-05T10:04:45.402Z,25.58
2022-10-05T10:07:32.628Z,25.53
2022-10-05T10:10:35.306Z,25.49
2022-10-05T10:13:45.979Z,25.51
2022-10-05T10:16:17.403Z,25.52
2022-10-05T10:19:07.515Z,25.52
2022-10-05T10:22:11.344Z,25.49
2022-10-05T10:24:45.748Z,25.48
2022-10-05T10:27:17.009Z,25.47
2022-10-05T10:29:55.728Z,25.46
2022-10-05T10:33:03.007Z,25.45
2022-10-05T10:35:40.333Z,25.50
2022-10-05T10:38:29.672Z,25.46
2022-10-05T10:41:46.585Z,25.44
2022-10-05T10:44:38.962Z,25.48
2022-10-05T10:47:34.246Z,25.48
2022-10-05T10:50:39.889Z,25.47
2022-10-05T10:53:10.322Z,25.49
2022-10-05T10:56:12.285Z,25.49
2022-10-05T10:59:10.771Z,25.47
2022-10-05T11:02:20.674Z,25.44
2022-10-05T11:04:59.138Z,25.48
2022-10-05T11:07:39.702Z,25.45
2022-10-05T11:10:39.110Z,25.42
2022-10-05T11:13:43.351Z,25.39
2022-10-05T11:16:19.638Z,25.37
2022-10-05T11:19:06.918Z,25.34
2022-10-05T11:22:23.936Z,25.32
2022-10-05T11:25:20.992Z,25.35
2022-10-05T11:28:11.143Z,25.38
2022-10-05T11:30:50.488Z,25.35
2022-10-05T11:33:38.456Z,25.31
2022-10-05T11:36:09.190Z,25.28
2022-10-05T11:38:57.648Z,25.25
2022-10-05T11:41:33.287Z,25.24
2022-10-05T11:44:23.172Z,25.21
2022-10-05T11:47:16.439Z,25.21
2022-10-05T11:50:12.270Z,25.19
2022-10-05T11:52:52.007Z,25.18
2022-10-05T11:55:33.100Z,25.18
2022-10-05T11:58:26.957Z,25.18
2022-10-05T12:01:41.520Z,25.18
2022-10-05T12:04:25.669Z,25.27
2022-10-05T12:07:06.235Z,25.29
2022-10-05T12:10:02.228Z,25.24
2022-10-05T12:12:43.212Z,25.25
2022-10-05T12:15:27.591Z,25.27
2022-10-05T12:18:17.708Z,25.26
2022-10-05T12:20:46.555Z,25.22
2022-10-05T12:23:32.463Z,25.19
2022-10-05T12:26:47.745Z,25.17
2022-10-05T12:29:36.605Z,25.21
2022-10-05T12:32:13.890Z,25.21
2022-10-05T12:34:49.434Z,25.19
2022-10-05T12:37:32.692Z,25.18
2022-10-05T12:40:33.195Z,25.16
2022-10-05T12:43:42.948Z,25.23
2022-10-05T12:46:20.848Z,25.28
2022-10-05T12:49:02.029Z,25.25
2022-10-05T12:51:57.133Z,25.23
2022-10-05T12:54:46.875Z,25.25
2022-10-05T12:57:23.896Z,25.27
2022-10-05T13:00:04.010Z,25.21
2022-10-05T13:02:35.822Z,25.19
2022-10-05T13:05:10.235Z,25.16
2022-10-05T13:07:41.827Z,25.12
2022-10-05T13:10:23.002Z,25.10
2022-10-05T13:13:19.402Z,25.08
2022-10-05T13:15:53.800Z,25.08
2022-10-05T13:18:50.258Z,25.05
2022-10-05T13:21:46.653Z,25.05
2022-10-05T13:24:22.975Z,25.06
2022-10-05T13:27:14.029Z,25.06
2022-10-05T13:29:57.698Z,25.08
2022-10-05T13:32:30.947Z,25.08
2022-10-05T13:35:03.681Z,25.06
2022-10-05T13:38:12.613Z,25.05
2022-10-05T13:40:50.106Z,25.08
2022-10-05T13:43:47.077Z,25.08
2022-10-05T13:46:39.620Z,25.10
2022-10-05T13:49:26.795Z,25.12
2022-10-05T13:52:01.859Z,25.08
2022-10-05T13:54:42.424Z,25.05
2022-10-05T13:57:17.467Z,25.03
2022-10-05T13:59:58.945Z,25.04
2022-10-05T14:02:32.201Z,25.04
2022-10-05T14:05:02.952Z,25.04
2022-10-05T14:07:38.444Z,25.04
2022-10-05T14:10:15.093Z,25.08
2022-10-05T14:12:46.246Z,25.00
2022-10-05T14:15:30.899Z,25.00
2022-10-05T14:17:59.288Z,25.02
2022-10-05T14:20:31.844Z,25.02
2022-10-05T14:23:05.639Z,25.00
2022-10-05T14:25:47.123Z,25.01
2022-10-05T14:28:25.914Z,25.04
2022-10-05T14:31:13.582Z,25.03
2022-10-05T14:33:42.699Z,25.03
2022-10-05T14:36:36.170Z,25.00
2022-10-05T14:39:05.573Z,25.03
2022-10-05T14:41:37.944Z,25.04
2022-10-05T14:44:18.567Z,25.01
2022-10-05T14:46:53.772Z,25.00
2022-10-05T14:49:26.205Z,25.00
2022-10-05T14:51:56.041Z,24.99
2022-10-05T14:54:27.909Z,24.97
2022-10-05T14:57:23.620Z,24.95
2022-10-05T15:00:13.852Z,24.97
2022-10-05T15:03:03.939Z,24.95
2022-10-05T15:05:41.904Z,24.93
2022-10-05T15:08:10.387Z,24.88
2022-10-05T15:10:43.322Z,24.90
2022-10-05T15:13:22.427Z,24.91
2022-10-05T15:15:56.079Z,24.92
2022-10-05T15:18:35.301Z,24.91
2022-10-05T15:21:12.834Z,24.90
2022-10-05T15:23:53.316Z,24.90
2022-10-05T15:26:27.511Z,24.90
2022-10-05T15:29:33.269Z,24.90
2022-10-05T15:32:42.712Z,24.89
2022-10-05T15:35:29.010Z,24.89
2022-10-05T15:38:05.376Z,24.87
2022-10-05T15:40:55.053Z,24.85
2022-10-05T15:43:23.859Z,24.87
2022-10-05T15:46:14.379Z,24.85
2022-10-05T15:48:59.516Z,24.85
2022-10-05T15:52:01.689Z,24.85
2022-10-05T15:54:57.213Z,24.85
2022-10-05T15:57:53.026Z,24.86
2022-10-05T16:00:22.986Z,24.86
2022-10-05T16:03:05.451Z,24.83
2022-10-05T16:06:25.439Z,24.83
2022-10-05T16:09:21.058Z,24.91
2022-10-05T16:12:00.700Z,24.94
2022-10-05T16:14:40.551Z,24.93
2022-10-05T16:17:30.244Z,24.90
2022-10-05T16:20:21.032Z,24.87
2022-10-05T16:22:52.488Z,24.84
2022-10-05T16:25:40.423Z,24.81
2022-10-05T16:28:15.320Z,24.82
2022-10-05T16:30:51.570Z,24.82
2022-10-05T16:33:54.732Z,24.83
2022-10-05T16:36:31.803Z,24.83
2022-10-05T16:39:20.761Z,24.81
2022-10-05T16:41:49.035Z,24.84
2022-10-05T16:44:44.964Z,24.83
2022-10-05T16:47:32.079Z,24.85
2022-10-05T16:50:14.083Z,24.85
2022-10-05T16:52:45.734Z,24.83
2022-10-05T16:55:23.536Z,24.82
2022-10-05T16:57:55.972Z,24.79
2022-10-05T17:00:38.416Z,24.78
2022-10-05T17:03:14.171Z,24.78
2022-10-05T17:05:57.805Z,24.74
2022-10-05T17:08:47.607Z,24.73
2022-10-05T17:11:30.305Z,24.71
2022-10-05T17:14:27.673Z,24.72
2022-10-05T17:17:08.637Z,24.76
2022-10-05T17:19:58.830Z,24.77
2022-10-05T17:22:55.369Z,24.75
2022-10-05T17:25:56.446Z,24.76
2022-10-05T17:28:37.318Z,24.80
2022-10-05T17:31:19.752Z,24.79
2022-10-05T17:34:26.245Z,24.79
2022-10-05T17:37:16.071Z,24.80
2022-10-05T17:39:49.854Z,24.81
2022-10-05T17:42:27.967Z,24.81
2022-10-05T17:45:34.448Z,24.77
2022-10-05T17:48:05.400Z,24.80
2022-10-05T17:50:58.433Z,24.81
2022-10-05T17:54:08.186Z,24.82
2022-10-05T17:56:57.557Z,24.84
2022-10-05T17:59:57.678Z,24.86
2022-10-05T18:02:36.303Z,24.85
2022-10-05T18:05:05.195Z,24.82
2022-10-05T18:07:38.075Z,24.78
2022-10-05T18:10:12.405Z,24.76
2022-10-05T18:13:21.219Z,24.73
2022-10-05T18:16:11.010Z,24.82
2022-10-05T18:18:45.293Z,24.83
2022-10-05T18:21:20.803Z,24.75
2022-10-05T18:23:52.223Z,24.72
2022-10-05T18:27:00.095Z,24.75
2022-10-05T18:30:09.055Z,24.81
2022-10-05T18:32:52.791Z,24.84
2022-10-05T18:35:31.927Z,24.80
2022-10-05T18:38:29.181Z,24.78
2022-10-05T18:41:32.172Z,24.80
2022-10-05T18:44:14.996Z,24.82
2022-10-05T18:47:00.778Z,24.82
2022-10-05T18:49:36.288Z,24.81
2022-10-05T18:52:23.340Z,24.82
2022-10-05T18:54:51.532Z,24.80
2022-10-05T18:57:47.034Z,24.78
2022-10-05T19:00:23.477Z,24.77
2022-10-05T19:03:15.537Z,24.75
2022-10-05T19:06:13.074Z,24.77
2022-10-05T19:09:03.494Z,24.76
2022-10-05T19:11:39.879Z,24.75
2022-10-05T19:14:45.872Z,24.74
2022-10-05T19:17:32.765Z,24.73
2022-10-05T19:20:11.254Z,24.74
2022-10-05T19:22:51.726Z,24.75
2022-10-05T19:25:30.742Z,24.77
2022-10-05T19:27:59.474Z,24.72
2022-10-05T19:30:56.022Z,24.73
2022-10-05T19:33:33.809Z,24.78
2022-10-05T19:36:02.185Z,24.82
2022-10-05T19:38:55.534Z,24.80
2022-10-05T19:41:41.655Z,24.78
2022-10-05T19:44:15.373Z,24.77
2022-10-05T19:47:07.550Z,24.76
2022-10-05T19:49:50.266Z,24.76
2022-10-05T19:52:28.997Z,24.75
2022-10-05T19:55:17.627Z,24.73
2022-10-05T19:57:50.530Z,24.72
2022-10-05T20:00:38.111Z,24.69
2022-10-05T20:03:27.722Z,24.71
2022-10-05T20:05:58.325Z,24.74
2022-10-05T20:08:32.105Z,24.74
2022-10-05T20:11:22.989Z,24.72
2022-10-05T20:13:55.250Z,24.71
2022-10-05T20:16:44.924Z,24.68
2022-10-05T20:19:50.381Z,24.70
2022-10-05T20:22:27.868Z,24.71
2022-10-05T20:24:58.195Z,24.67
2022-10-05T20:27:47.812Z,24.68
2022-10-05T20:30:17.432Z,24.68
2022-10-05T20:33:01.036Z,24.68
2022-10-05T20:35:31.034Z,24.68
2022-10-05T20:38:00.531Z,24.68
2022-10-05T20:40:32.094Z,24.67
2022-10-05T20:43:15.423Z,24.67
2022-10-05T20:45:44.111Z,24.68
2022-10-05T20:48:13.821Z,24.67
2022-10-05T20:50:42.107Z,24.65
2022-10-05T20:53:12.050Z,24.63
2022-10-05T20:55:40.990Z,24.63
2022-10-05T20:58:09.487Z,24.62
2022-10-05T21:00:56.157Z,24.61
2022-10-05T21:03:24.684Z,24.62
2022-10-05T21:05:53.159Z,24.59
2022-10-05T21:08:21.461Z,24.58
2022-10-05T21:10:50.689Z,24.58
2022-10-05T21:13:18.912Z,24.57
2022-10-05T21:15:47.397Z,24.57
2022-10-05T21:18:17.314Z,24.56
2022-10-05T21:20:50.919Z,24.56
2022-10-05T21:23:19.497Z,24.58
2022-10-05T21:25:49.000Z,24.59
2022-10-05T21:28:17.524Z,24.57
2022-10-05T21:30:45.863Z,24.56
2022-10-05T21:33:14.241Z,24.56
2022-10-05T21:35:42.833Z,24.55
2022-10-05T21:38:11.309Z,24.54
2022-10-05T21:40:39.583Z,24.55
2022-10-05T21:43:07.984Z,24.54
2022-10-05T21:45:36.373Z,24.54
2022-10-05T21:48:05.543Z,24.53
2022-10-05T21:50:34.749Z,24.54
2022-10-05T21:53:04.095Z,24.52
2022-10-05T21:55:36.730Z,24.52
2022-10-05T21:58:05.412Z,24.51
2022-10-05T22:00:33.748Z,24.51
2022-10-05T22:03:02.065Z,24.51
2022-10-05T22:05:30.676Z,24.50
2022-10-05T22:07:59.027Z,24.49
2022-10-05T22:10:27.515Z,24.49
2022-10-05T22:13:03.437Z,24.48
2022-10-05T22:15:31.947Z,24.49
2022-10-05T22:18:00.451Z,24.49
2022-10-05T22:20:35.983Z,24.49
2022-10-05T22:23:07.125Z,24.49
2022-10-05T22:25:35.706Z,24.50
2022-10-05T22:28:04.875Z,24.44
2022-10-05T22:30:33.487Z,24.47
2022-10-05T22:33:01.766Z,24.48
2022-10-05T22:35:31.627Z,24.48
2022-10-05T22:37:59.957Z,24.46
2022-10-05T22:40:28.345Z,24.46
2022-10-05T22:42:57.231Z,24.47
2022-10-05T22:45:30.344Z,24.45
2022-10-05T22:48:00.748Z,24.46
2022-10-05T22:50:28.919Z,24.46
2022-10-05T22:52:57.299Z,24.44
2022-10-05T22:55:25.706Z,24.43
2022-10-05T22:57:54.060Z,24.41
2022-10-05T23:00:35.226Z,24.42
2022-10-05T23:03:09.045Z,24.44
2022-10-05T23:05:37.939Z,24.44
2022-10-05T23:08:06.112Z,24.44
2022-10-05T23:10:34.388Z,24.43
2022-10-05T23:13:03.075Z,24.42
2022-10-05T23:15:31.248Z,24.42
2022-10-05T23:17:59.731Z,24.40
2022-10-05T23:20:28.415Z,24.40
2022-10-05T23:22:56.796Z,24.40
2022-10-05T23:25:25.992Z,24.37
2022-10-05T23:27:54.454Z,24.37
2022-10-05T23:30:22.956Z,24.36
2022-10-05T23:32:51.372Z,24.36
2022-10-05T23:35:19.716Z,24.34
2022-10-05T23:37:47.993Z,24.35
2022-10-05T23:40:16.576Z,24.35
2022-10-05T23:42:45.263Z,24.34
2022-10-05T23:45:14.050Z,24.35
2022-10-05T23:47:42.534Z,24.35
2022-10-05T23:50:10.912Z,24.35
2022-10-05T23:52:39.291Z,24.33
2022-10-05T23:55:08.268Z,24.33
2022-10-05T23:57:36.666Z,24.32
